sensor_id;sensor_type;location;lat;lon;timestamp;pressure;altitude;pressure_sealevel;temperature;humidity
71772;BME280;59606;52.138;5.424;2023-05-01T00:01:59;101975.69;;;10.92;73.03
71772;BME280;59606;52.138;5.424;2023-05-01T00:04:29;101966.28;;;10.88;73.11
71772;BME280;59606;52.138;5.424;2023-05-01T00:06:55;101963.81;;;10.83;73.64
71772;BME280;59606;52.138;5.424;2023-05-01T00:09:22;101964.81;;;10.80;73.45
71772;BME280;59606;52.138;5.424;2023-05-01T00:11:49;101960.59;;;10.76;73.43
71772;BME280;59606;52.138;5.424;2023-05-01T00:14:15;101962.47;;;10.73;73.51
71772;BME280;59606;52.138;5.424;2023-05-01T00:16:43;101949.69;;;10.67;74.18
71772;BME280;59606;52.138;5.424;2023-05-01T00:19:11;101948.97;;;10.63;73.94
71772;BME280;59606;52.138;5.424;2023-05-01T00:21:38;101947.31;;;10.60;73.81
71772;BME280;59606;52.138;5.424;2023-05-01T00:24:04;101943.97;;;10.57;74.05
71772;BME280;59606;52.138;5.424;2023-05-01T00:26:31;101938.91;;;10.52;74.57
71772;BME280;59606;52.138;5.424;2023-05-01T00:28:57;101937.34;;;10.48;74.85
71772;BME280;59606;52.138;5.424;2023-05-01T00:31:24;101938.34;;;10.44;74.92
71772;BME280;59606;52.138;5.424;2023-05-01T00:33:51;101934.94;;;10.42;75.00
71772;BME280;59606;52.138;5.424;2023-05-01T00:36:18;101938.53;;;10.40;74.90
71772;BME280;59606;52.138;5.424;2023-05-01T00:38:44;101923.91;;;10.35;75.26
71772;BME280;59606;52.138;5.424;2023-05-01T00:41:11;101926.56;;;10.34;75.52
71772;BME280;59606;52.138;5.424;2023-05-01T00:43:38;101919.72;;;10.31;75.48
71772;BME280;59606;52.138;5.424;2023-05-01T00:46:04;101911.97;;;10.30;75.27
71772;BME280;59606;52.138;5.424;2023-05-01T00:48:31;101912.94;;;10.27;75.18
71772;BME280;59606;52.138;5.424;2023-05-01T00:50:59;101903.44;;;10.25;75.87
71772;BME280;59606;52.138;5.424;2023-05-01T00:53:29;101899.16;;;10.22;75.47
71772;BME280;59606;52.138;5.424;2023-05-01T00:55:57;101895.00;;;10.18;76.05
71772;BME280;59606;52.138;5.424;2023-05-01T01:06:05;101884.16;;;10.05;76.17
71772;BME280;59606;52.138;5.424;2023-05-01T01:09:03;101886.94;;;10.01;76.11
71772;BME280;59606;52.138;5.424;2023-05-01T01:11:42;101881.03;;;9.96;76.90
71772;BME280;59606;52.138;5.424;2023-05-01T01:14:19;101878.59;;;9.91;77.42
71772;BME280;59606;52.138;5.424;2023-05-01T01:22:14;101868.50;;;9.82;76.21
71772;BME280;59606;52.138;5.424;2023-05-01T01:30:33;101858.44;;;9.73;76.96
71772;BME280;59606;52.138;5.424;2023-05-01T01:36:02;101853.34;;;9.70;76.90
71772;BME280;59606;52.138;5.424;2023-05-01T01:38:39;101841.31;;;9.65;77.19
71772;BME280;59606;52.138;5.424;2023-05-01T01:41:19;101840.56;;;9.62;77.60
71772;BME280;59606;52.138;5.424;2023-05-01T01:44:04;101838.88;;;9.61;76.86
71772;BME280;59606;52.138;5.424;2023-05-01T01:46:36;101835.53;;;9.57;77.26
71772;BME280;59606;52.138;5.424;2023-05-01T01:49:12;101827.81;;;9.56;77.70
71772;BME280;59606;52.138;5.424;2023-05-01T01:51:41;101830.41;;;9.56;77.55
71772;BME280;59606;52.138;5.424;2023-05-01T01:54:10;101820.09;;;9.53;77.72
71772;BME280;59606;52.138;5.424;2023-05-01T01:56:41;101815.78;;;9.52;78.01
71772;BME280;59606;52.138;5.424;2023-05-01T01:59:08;101812.41;;;9.50;77.76
71772;BME280;59606;52.138;5.424;2023-05-01T02:01:38;101810.78;;;9.45;77.86
71772;BME280;59606;52.138;5.424;2023-05-01T02:04:06;101810.00;;;9.43;78.01
71772;BME280;59606;52.138;5.424;2023-05-01T02:06:34;101802.31;;;9.40;77.95
71772;BME280;59606;52.138;5.424;2023-05-01T02:09:02;101798.91;;;9.38;78.09
71772;BME280;59606;52.138;5.424;2023-05-01T02:11:32;101790.31;;;9.36;77.78
71772;BME280;59606;52.138;5.424;2023-05-01T02:14:01;101792.97;;;9.35;78.14
71772;BME280;59606;52.138;5.424;2023-05-01T02:16:30;101785.22;;;9.33;78.64
71772;BME280;59606;52.138;5.424;2023-05-01T02:18:59;101784.41;;;9.31;78.46
71772;BME280;59606;52.138;5.424;2023-05-01T02:21:26;101779.28;;;9.30;78.52
71772;BME280;59606;52.138;5.424;2023-05-01T02:23:59;101777.69;;;9.26;78.80
71772;BME280;59606;52.138;5.424;2023-05-01T02:26:27;101783.00;;;9.23;79.02
71772;BME280;59606;52.138;5.424;2023-05-01T02:28:54;101774.31;;;9.22;79.09
71772;BME280;59606;52.138;5.424;2023-05-01T02:31:21;101773.53;;;9.20;79.23
71772;BME280;59606;52.138;5.424;2023-05-01T02:33:48;101763.19;;;9.18;79.38
71772;BME280;59606;52.138;5.424;2023-05-01T02:36:15;101772.75;;;9.18;79.09
71772;BME280;59606;52.138;5.424;2023-05-01T02:38:41;101769.28;;;9.17;79.12
71772;BME280;59606;52.138;5.424;2023-05-01T02:41:09;101771.03;;;9.17;79.24
71772;BME280;59606;52.138;5.424;2023-05-01T02:43:37;101769.34;;;9.16;79.52
71772;BME280;59606;52.138;5.424;2023-05-01T02:46:06;101764.19;;;9.14;79.73
71772;BME280;59606;52.138;5.424;2023-05-01T02:48:33;101761.59;;;9.14;79.31
71772;BME280;59606;52.138;5.424;2023-05-01T02:51:01;101760.75;;;9.14;80.04
71772;BME280;59606;52.138;5.424;2023-05-01T02:53:29;101760.72;;;9.15;79.70
71772;BME280;59606;52.138;5.424;2023-05-01T02:55:56;101754.63;;;9.15;79.58
71772;BME280;59606;52.138;5.424;2023-05-01T02:58:22;101757.25;;;9.15;79.68
71772;BME280;59606;52.138;5.424;2023-05-01T03:00:49;101746.00;;;9.14;80.83
71772;BME280;59606;52.138;5.424;2023-05-01T03:03:16;101735.59;;;9.14;80.43
71772;BME280;59606;52.138;5.424;2023-05-01T03:05:43;101745.97;;;9.16;79.90
71772;BME280;59606;52.138;5.424;2023-05-01T03:08:09;101737.25;;;9.17;80.11
71772;BME280;59606;52.138;5.424;2023-05-01T03:10:38;101735.50;;;9.17;80.53
71772;BME280;59606;52.138;5.424;2023-05-01T03:13:05;101732.88;;;9.19;80.42
71772;BME280;59606;52.138;5.424;2023-05-01T03:15:31;101731.94;;;9.20;80.50
71772;BME280;59606;52.138;5.424;2023-05-01T03:17:58;101724.94;;;9.22;81.00
71772;BME280;59606;52.138;5.424;2023-05-01T03:20:24;101722.31;;;9.22;80.53
71772;BME280;59606;52.138;5.424;2023-05-01T03:22:52;101719.59;;;9.27;81.07
71772;BME280;59606;52.138;5.424;2023-05-01T03:25:19;101717.75;;;9.29;80.39
71772;BME280;59606;52.138;5.424;2023-05-01T03:27:45;101713.38;;;9.31;81.20
71772;BME280;59606;52.138;5.424;2023-05-01T03:30:12;101715.06;;;9.32;80.81
71772;BME280;59606;52.138;5.424;2023-05-01T03:32:38;101715.00;;;9.33;81.16
71772;BME280;59606;52.138;5.424;2023-05-01T03:35:05;101707.25;;;9.32;81.04
71772;BME280;59606;52.138;5.424;2023-05-01T03:37:33;101703.78;;;9.33;81.16
71772;BME280;59606;52.138;5.424;2023-05-01T03:39:59;101708.88;;;9.36;81.35
71772;BME280;59606;52.138;5.424;2023-05-01T03:42:26;101699.31;;;9.36;80.80
71772;BME280;59606;52.138;5.424;2023-05-01T03:44:52;101698.41;;;9.37;81.10
71772;BME280;59606;52.138;5.424;2023-05-01T03:47:19;101697.47;;;9.38;81.50
71772;BME280;59606;52.138;5.424;2023-05-01T03:49:45;101698.34;;;9.39;81.61
71772;BME280;59606;52.138;5.424;2023-05-01T03:52:12;101701.81;;;9.39;81.42
71772;BME280;59606;52.138;5.424;2023-05-01T03:54:40;101706.19;;;9.37;81.74
71772;BME280;59606;52.138;5.424;2023-05-01T03:57:06;101701.06;;;9.36;81.81
71772;BME280;59606;52.138;5.424;2023-05-01T03:59:33;101692.34;;;9.37;81.37
71772;BME280;59606;52.138;5.424;2023-05-01T04:02:00;101690.59;;;9.37;81.97
71772;BME280;59606;52.138;5.424;2023-05-01T04:04:27;101687.94;;;9.39;81.84
71772;BME280;59606;52.138;5.424;2023-05-01T04:06:55;101690.56;;;9.39;81.37
71772;BME280;59606;52.138;5.424;2023-05-01T04:09:21;101688.72;;;9.41;81.36
71772;BME280;59606;52.138;5.424;2023-05-01T04:11:48;101686.13;;;9.41;81.55
71772;BME280;59606;52.138;5.424;2023-05-01T04:14:14;101683.53;;;9.41;80.87
71772;BME280;59606;52.138;5.424;2023-05-01T04:16:41;101679.22;;;9.40;80.76
71772;BME280;59606;52.138;5.424;2023-05-01T04:19:08;101679.16;;;9.41;80.14
71772;BME280;59606;52.138;5.424;2023-05-01T04:21:35;101681.72;;;9.43;80.24
71772;BME280;59606;52.138;5.424;2023-05-01T04:24:02;101675.69;;;9.42;80.35
71772;BME280;59606;52.138;5.424;2023-05-01T04:26:28;101684.38;;;9.41;80.14
71772;BME280;59606;52.138;5.424;2023-05-01T04:28:55;101679.16;;;9.41;80.59
71772;BME280;59606;52.138;5.424;2023-05-01T04:31:21;101678.31;;;9.41;79.91
71772;BME280;59606;52.138;5.424;2023-05-01T04:33:48;101680.88;;;9.42;80.08
71772;BME280;59606;52.138;5.424;2023-05-01T04:36:14;101672.16;;;9.43;79.90
71772;BME280;59606;52.138;5.424;2023-05-01T04:38:41;101679.06;;;9.44;79.46
71772;BME280;59606;52.138;5.424;2023-05-01T04:41:07;101682.50;;;9.45;79.27
71772;BME280;59606;52.138;5.424;2023-05-01T04:43:34;101684.25;;;9.44;79.72
71772;BME280;59606;52.138;5.424;2023-05-01T04:46:03;101684.38;;;9.41;80.00
71772;BME280;59606;52.138;5.424;2023-05-01T04:48:29;101687.81;;;9.42;80.12
71772;BME280;59606;52.138;5.424;2023-05-01T04:50:56;101684.34;;;9.43;80.46
71772;BME280;59606;52.138;5.424;2023-05-01T04:53:22;101676.53;;;9.43;80.08
71772;BME280;59606;52.138;5.424;2023-05-01T04:55:49;101686.84;;;9.44;79.81
71772;BME280;59606;52.138;5.424;2023-05-01T04:58:15;101689.41;;;9.46;79.44
71772;BME280;59606;52.138;5.424;2023-05-01T05:00:42;101684.16;;;9.48;79.46
71772;BME280;59606;52.138;5.424;2023-05-01T05:03:08;101680.63;;;9.49;79.45
71772;BME280;59606;52.138;5.424;2023-05-01T05:05:35;101678.91;;;9.49;79.13
71772;BME280;59606;52.138;5.424;2023-05-01T05:08:01;101674.56;;;9.50;78.74
71772;BME280;59606;52.138;5.424;2023-05-01T05:10:28;101666.69;;;9.51;79.16
71772;BME280;59606;52.138;5.424;2023-05-01T05:12:54;101677.88;;;9.53;78.92
71772;BME280;59606;52.138;5.424;2023-05-01T05:15:22;101674.31;;;9.56;79.50
71772;BME280;59606;52.138;5.424;2023-05-01T05:17:48;101679.38;;;9.59;78.93
71772;BME280;59606;52.138;5.424;2023-05-01T05:20:15;101674.16;;;9.60;79.24
71772;BME280;59606;52.138;5.424;2023-05-01T05:22:41;101678.38;;;9.63;79.84
71772;BME280;59606;52.138;5.424;2023-05-01T05:25:08;101684.31;;;9.66;79.51
71772;BME280;59606;52.138;5.424;2023-05-01T05:27:34;101680.75;;;9.69;79.10
71772;BME280;59606;52.138;5.424;2023-05-01T05:30:04;101677.19;;;9.72;78.96
71772;BME280;59606;52.138;5.424;2023-05-01T05:32:31;101673.63;;;9.74;79.46
71772;BME280;59606;52.138;5.424;2023-05-01T05:34:58;101680.47;;;9.77;78.46
71772;BME280;59606;52.138;5.424;2023-05-01T05:37:24;101675.16;;;9.80;78.31
71772;BME280;59606;52.138;5.424;2023-05-01T05:39:51;101672.38;;;9.84;78.64
71772;BME280;59606;52.138;5.424;2023-05-01T05:42:18;101670.56;;;9.86;77.93
71772;BME280;59606;52.138;5.424;2023-05-01T05:44:45;101669.66;;;9.87;77.97
71772;BME280;59606;52.138;5.424;2023-05-01T05:47:11;101665.25;;;9.89;78.06
71772;BME280;59606;52.138;5.424;2023-05-01T05:49:38;101654.84;;;9.89;77.71
71772;BME280;59606;52.138;5.424;2023-05-01T05:52:04;101662.63;;;9.89;77.45
71772;BME280;59606;52.138;5.424;2023-05-01T05:54:31;101659.03;;;9.92;77.53
71772;BME280;59606;52.138;5.424;2023-05-01T05:56:57;101667.56;;;9.96;77.15
71772;BME280;59606;52.138;5.424;2023-05-01T05:59:24;101661.41;;;9.98;76.90
71772;BME280;59606;52.138;5.424;2023-05-01T06:01:50;101662.13;;;10.02;77.02
71772;BME280;59606;52.138;5.424;2023-05-01T06:04:17;101649.94;;;10.04;76.95
71772;BME280;59606;52.138;5.424;2023-05-01T06:06:44;101655.97;;;10.04;76.89
71772;BME280;59606;52.138;5.424;2023-05-01T06:09:10;101653.25;;;10.07;76.57
71772;BME280;59606;52.138;5.424;2023-05-01T06:11:38;101665.22;;;10.11;76.55
71772;BME280;59606;52.138;5.424;2023-05-01T06:14:04;101659.06;;;10.14;75.76
71772;BME280;59606;52.138;5.424;2023-05-01T06:16:31;101657.25;;;10.16;75.67
71772;BME280;59606;52.138;5.424;2023-05-01T06:18:58;101655.31;;;10.21;75.92
71772;BME280;59606;52.138;5.424;2023-05-01T06:21:24;101658.63;;;10.26;76.03
71772;BME280;59606;52.138;5.424;2023-05-01T06:23:51;101647.06;;;10.32;75.99
71772;BME280;59606;52.138;5.424;2023-05-01T06:26:17;101648.59;;;10.37;75.44
71772;BME280;59606;52.138;5.424;2023-05-01T06:28:44;101650.13;;;10.43;75.49
71772;BME280;59606;52.138;5.424;2023-05-01T06:31:10;101649.84;;;10.49;75.13
71772;BME280;59606;52.138;5.424;2023-05-01T06:33:37;101638.31;;;10.55;75.20
71772;BME280;59606;52.138;5.424;2023-05-01T06:36:03;101643.19;;;10.62;74.69
71772;BME280;59606;52.138;5.424;2023-05-01T06:38:30;101646.47;;;10.68;74.97
71772;BME280;59606;52.138;5.424;2023-05-01T06:40:58;101643.53;;;10.75;74.15
71772;BME280;59606;52.138;5.424;2023-05-01T06:43:24;101638.16;;;10.80;74.51
71772;BME280;59606;52.138;5.424;2023-05-01T06:45:56;101635.31;;;10.84;74.21
71772;BME280;59606;52.138;5.424;2023-05-01T06:48:22;101636.03;;;10.88;74.16
71772;BME280;59606;52.138;5.424;2023-05-01T06:50:49;101643.72;;;10.91;73.91
71772;BME280;59606;52.138;5.424;2023-05-01T06:53:15;101637.53;;;10.94;73.72
71772;BME280;59606;52.138;5.424;2023-05-01T06:55:42;101638.19;;;10.99;74.49
71772;BME280;59606;52.138;5.424;2023-05-01T06:58:08;101633.75;;;11.01;73.73
71772;BME280;59606;52.138;5.424;2023-05-01T07:00:48;101640.59;;;11.03;73.96
71772;BME280;59606;52.138;5.424;2023-05-01T07:03:15;101641.31;;;11.07;73.76
71772;BME280;59606;52.138;5.424;2023-05-01T07:05:42;101641.09;;;11.12;73.83
71772;BME280;59606;52.138;5.424;2023-05-01T07:08:09;101638.34;;;11.15;74.00
71772;BME280;59606;52.138;5.424;2023-05-01T07:10:35;101640.75;;;11.19;74.53
71772;BME280;59606;52.138;5.424;2023-05-01T07:13:03;101635.25;;;11.25;75.32
71772;BME280;59606;52.138;5.424;2023-05-01T07:15:30;101626.47;;;11.28;75.12
71772;BME280;59606;52.138;5.424;2023-05-01T07:17:56;101630.69;;;11.30;75.27
71772;BME280;59606;52.138;5.424;2023-05-01T07:20:23;101625.41;;;11.32;75.59
71772;BME280;59606;52.138;5.424;2023-05-01T07:22:50;101629.50;;;11.38;75.37
71772;BME280;59606;52.138;5.424;2023-05-01T07:25:16;101626.63;;;11.44;75.08
71772;BME280;59606;52.138;5.424;2023-05-01T07:27:43;101630.78;;;11.48;74.95
71772;BME280;59606;52.138;5.424;2023-05-01T07:30:09;101622.59;;;11.55;74.47
71772;BME280;59606;52.138;5.424;2023-05-01T07:32:36;101636.34;;;11.59;74.11
71772;BME280;59606;52.138;5.424;2023-05-01T07:35:03;101629.22;;;11.63;74.54
71772;BME280;59606;52.138;5.424;2023-05-01T07:37:30;101637.53;;;11.71;74.28
71772;BME280;59606;52.138;5.424;2023-05-01T07:39:56;101635.53;;;11.76;74.08
71772;BME280;59606;52.138;5.424;2023-05-01T07:42:26;101630.03;;;11.82;73.81
71772;BME280;59606;52.138;5.424;2023-05-01T07:44:52;101628.16;;;11.86;73.89
71772;BME280;59606;52.138;5.424;2023-05-01T07:47:19;101627.03;;;11.91;73.58
71772;BME280;59606;52.138;5.424;2023-05-01T07:49:45;101625.19;;;11.93;73.35
71772;BME280;59606;52.138;5.424;2023-05-01T07:52:12;101624.13;;;11.97;72.72
71772;BME280;59606;52.138;5.424;2023-05-01T07:54:38;101622.38;;;11.98;72.94
71772;BME280;59606;52.138;5.424;2023-05-01T07:57:05;101627.59;;;11.98;72.16
71772;BME280;59606;52.138;5.424;2023-05-01T07:59:31;101625.03;;;11.96;72.61
71772;BME280;59606;52.138;5.424;2023-05-01T08:01:58;101626.66;;;11.99;72.47
71772;BME280;59606;52.138;5.424;2023-05-01T08:04:26;101625.72;;;12.00;72.19
71772;BME280;59606;52.138;5.424;2023-05-01T08:06:53;101624.75;;;12.02;72.12
71772;BME280;59606;52.138;5.424;2023-05-01T08:09:19;101624.59;;;12.06;72.23
71772;BME280;59606;52.138;5.424;2023-05-01T08:11:46;101629.53;;;12.12;71.94
71772;BME280;59606;52.138;5.424;2023-05-01T08:14:12;101631.16;;;12.14;72.13
71772;BME280;59606;52.138;5.424;2023-05-01T08:16:39;101633.53;;;12.19;72.19
71772;BME280;59606;52.138;5.424;2023-05-01T08:19:05;101635.06;;;12.23;72.48
71772;BME280;59606;52.138;5.424;2023-05-01T08:21:32;101626.09;;;12.29;72.62
71772;BME280;59606;52.138;5.424;2023-05-01T08:23:58;101629.44;;;12.31;72.18
71772;BME280;59606;52.138;5.424;2023-05-01T08:26:25;101629.31;;;12.34;71.95
71772;BME280;59606;52.138;5.424;2023-05-01T08:28:51;101630.19;;;12.34;71.36
71772;BME280;59606;52.138;5.424;2023-05-01T08:31:18;101623.94;;;12.37;72.33
71772;BME280;59606;52.138;5.424;2023-05-01T08:33:44;101634.19;;;12.41;72.37
71772;BME280;59606;52.138;5.424;2023-05-01T08:36:11;101630.47;;;12.45;71.68
71772;BME280;59606;52.138;5.424;2023-05-01T08:38:37;101623.31;;;12.49;71.91
71772;BME280;59606;52.138;5.424;2023-05-01T08:41:05;101628.47;;;12.50;70.94
71772;BME280;59606;52.138;5.424;2023-05-01T08:43:32;101632.78;;;12.52;71.13
71772;BME280;59606;52.138;5.424;2023-05-01T08:45:58;101622.03;;;12.58;71.76
71772;BME280;59606;52.138;5.424;2023-05-01T08:48:30;101631.56;;;12.59;71.10
71772;BME280;59606;52.138;5.424;2023-05-01T08:50:58;101635.84;;;12.60;71.62
71772;BME280;59606;52.138;5.424;2023-05-01T08:53:26;101630.47;;;12.63;71.62
71772;BME280;59606;52.138;5.424;2023-05-01T08:55:54;101633.94;;;12.63;71.19
71772;BME280;59606;52.138;5.424;2023-05-01T08:58:23;101632.16;;;12.64;70.50
71772;BME280;59606;52.138;5.424;2023-05-01T09:00:50;101632.09;;;12.65;69.89
71772;BME280;59606;52.138;5.424;2023-05-01T09:03:17;101640.63;;;12.69;69.67
71772;BME280;59606;52.138;5.424;2023-05-01T09:05:44;101635.16;;;12.73;69.36
71772;BME280;59606;52.138;5.424;2023-05-01T09:08:11;101633.16;;;12.79;70.95
71772;BME280;59606;52.138;5.424;2023-05-01T09:10:41;101637.06;;;12.87;70.37
71772;BME280;59606;52.138;5.424;2023-05-01T09:13:10;101635.13;;;12.91;69.24
71772;BME280;59606;52.138;5.424;2023-05-01T09:15:37;101640.97;;;12.96;69.26
71772;BME280;59606;52.138;5.424;2023-05-01T09:18:04;101633.75;;;13.01;68.67
71772;BME280;59606;52.138;5.424;2023-05-01T09:20:31;101635.84;;;13.10;69.45
71772;BME280;59606;52.138;5.424;2023-05-01T09:22:58;101640.50;;;13.21;68.39
71772;BME280;59606;52.138;5.424;2023-05-01T09:25:24;101638.22;;;13.32;69.18
71772;BME280;59606;52.138;5.424;2023-05-01T09:27:51;101635.97;;;13.42;68.01
71772;BME280;59606;52.138;5.424;2023-05-01T09:30:34;101636.53;;;13.47;67.80
71772;BME280;59606;52.138;5.424;2023-05-01T09:33:08;101629.66;;;13.62;67.48
71772;BME280;59606;52.138;5.424;2023-05-01T09:35:52;101642.88;;;13.75;68.42
71772;BME280;59606;52.138;5.424;2023-05-01T09:38:21;101637.91;;;13.86;65.45
71772;BME280;59606;52.138;5.424;2023-05-01T09:40:48;101640.38;;;13.89;63.43
71772;BME280;59606;52.138;5.424;2023-05-01T09:43:28;101634.78;;;13.95;63.95
71772;BME280;59606;52.138;5.424;2023-05-01T09:46:05;101635.78;;;14.08;63.78
71772;BME280;59606;52.138;5.424;2023-05-01T09:48:35;101648.94;;;14.23;62.49
71772;BME280;59606;52.138;5.424;2023-05-01T09:53:49;101636.53;;;14.41;62.34
71772;BME280;59606;52.138;5.424;2023-05-01T09:56:18;101634.91;;;14.54;61.82
71772;BME280;59606;52.138;5.424;2023-05-01T09:58:44;101643.94;;;14.64;59.35
71772;BME280;59606;52.138;5.424;2023-05-01T10:01:12;101637.84;;;14.64;60.73
71772;BME280;59606;52.138;5.424;2023-05-01T10:03:38;101636.53;;;14.71;60.01
71772;BME280;59606;52.138;5.424;2023-05-01T10:06:05;101634.41;;;14.77;60.38
71772;BME280;59606;52.138;5.424;2023-05-01T10:08:49;101631.22;;;14.87;60.89
71772;BME280;59606;52.138;5.424;2023-05-01T10:11:15;101637.78;;;14.94;60.73
71772;BME280;59606;52.138;5.424;2023-05-01T10:13:42;101626.28;;;14.96;60.73
71772;BME280;59606;52.138;5.424;2023-05-01T10:16:27;101635.47;;;15.03;61.38
71772;BME280;59606;52.138;5.424;2023-05-01T10:18:55;101632.72;;;15.05;61.50
71772;BME280;59606;52.138;5.424;2023-05-01T10:21:26;101633.19;;;15.12;62.32
71772;BME280;59606;52.138;5.424;2023-05-01T10:23:54;101640.41;;;15.22;60.40
71772;BME280;59606;52.138;5.424;2023-05-01T10:26:20;101636.38;;;15.31;60.36
71772;BME280;59606;52.138;5.424;2023-05-01T10:28:48;101637.97;;;15.33;59.24
71772;BME280;59606;52.138;5.424;2023-05-01T10:31:15;101635.06;;;15.38;59.74
71772;BME280;59606;52.138;5.424;2023-05-01T10:33:45;101643.31;;;15.46;59.04
71772;BME280;59606;52.138;5.424;2023-05-01T10:36:19;101643.66;;;15.54;57.77
71772;BME280;59606;52.138;5.424;2023-05-01T10:38:47;101640.97;;;15.56;56.07
71772;BME280;59606;52.138;5.424;2023-05-01T10:41:14;101640.97;;;15.56;55.77
71772;BME280;59606;52.138;5.424;2023-05-01T10:43:42;101640.47;;;15.64;57.67
71772;BME280;59606;52.138;5.424;2023-05-01T10:51:15;101642.84;;;15.95;56.42
71772;BME280;59606;52.138;5.424;2023-05-01T10:53:44;101649.56;;;15.99;56.49
71772;BME280;59606;52.138;5.424;2023-05-01T11:09:42;101649.91;;;16.35;53.51
71772;BME280;59606;52.138;5.424;2023-05-01T11:12:11;101650.31;;;16.29;51.92
71772;BME280;59606;52.138;5.424;2023-05-01T11:22:55;101655.38;;;16.32;51.23
71772;BME280;59606;52.138;5.424;2023-05-01T11:27:51;101647.50;;;16.32;53.96
71772;BME280;59606;52.138;5.424;2023-05-01T11:30:18;101641.63;;;16.41;54.24
71772;BME280;59606;52.138;5.424;2023-05-01T11:32:46;101651.53;;;16.50;54.55
71772;BME280;59606;52.138;5.424;2023-05-01T11:35:24;101647.44;;;16.59;54.25
71772;BME280;59606;52.138;5.424;2023-05-01T11:37:55;101637.53;;;16.62;53.15
71772;BME280;59606;52.138;5.424;2023-05-01T11:40:23;101644.28;;;16.66;52.68
71772;BME280;59606;52.138;5.424;2023-05-01T11:42:56;101645.78;;;16.70;52.99
71772;BME280;59606;52.138;5.424;2023-05-01T11:45:25;101646.97;;;16.79;53.93
71772;BME280;59606;52.138;5.424;2023-05-01T11:47:52;101639.28;;;16.89;53.59
71772;BME280;59606;52.138;5.424;2023-05-01T11:50:19;101632.34;;;17.01;54.40
71772;BME280;59606;52.138;5.424;2023-05-01T11:52:48;101642.13;;;17.11;55.05
71772;BME280;59606;52.138;5.424;2023-05-01T11:55:15;101644.75;;;17.24;53.58
71772;BME280;59606;52.138;5.424;2023-05-01T11:57:51;101639.78;;;17.32;52.98
71772;BME280;59606;52.138;5.424;2023-05-01T12:00:29;101643.69;;;17.63;54.14
71772;BME280;59606;52.138;5.424;2023-05-01T12:02:57;101635.97;;;17.86;53.47
71772;BME280;59606;52.138;5.424;2023-05-01T12:05:26;101639.13;;;17.91;52.91
71772;BME280;59606;52.138;5.424;2023-05-01T12:08:11;101635.25;;;18.08;52.42
71772;BME280;59606;52.138;5.424;2023-05-01T12:10:40;101651.50;;;18.26;52.75
71772;BME280;59606;52.138;5.424;2023-05-01T12:13:10;101636.78;;;18.34;50.46
71772;BME280;59606;52.138;5.424;2023-05-01T12:15:50;101639.75;;;18.30;50.79
71772;BME280;59606;52.138;5.424;2023-05-01T12:18:18;101637.22;;;18.28;51.74
71772;BME280;59606;52.138;5.424;2023-05-01T12:20:48;101644.13;;;18.42;51.39
71772;BME280;59606;52.138;5.424;2023-05-01T12:23:18;101650.25;;;18.19;52.27
71772;BME280;59606;52.138;5.424;2023-05-01T12:25:45;101651.16;;;18.06;51.95
71772;BME280;59606;52.138;5.424;2023-05-01T12:28:14;101654.31;;;17.87;51.69
71772;BME280;59606;52.138;5.424;2023-05-01T12:30:41;101662.13;;;17.76;51.90
71772;BME280;59606;52.138;5.424;2023-05-01T12:33:13;101668.72;;;17.58;53.76
71772;BME280;59606;52.138;5.424;2023-05-01T12:35:40;101666.84;;;17.34;55.19
71772;BME280;59606;52.138;5.424;2023-05-01T12:38:11;101658.34;;;17.18;56.08
71772;BME280;59606;52.138;5.424;2023-05-01T12:40:58;101662.97;;;17.02;56.22
71772;BME280;59606;52.138;5.424;2023-05-01T12:43:30;101665.59;;;17.02;56.88
71772;BME280;59606;52.138;5.424;2023-05-01T12:45:57;101660.88;;;16.94;56.92
71772;BME280;59606;52.138;5.424;2023-05-01T12:48:24;101664.56;;;16.91;57.52
71772;BME280;59606;52.138;5.424;2023-05-01T12:50:51;101669.41;;;16.98;57.96
71772;BME280;59606;52.138;5.424;2023-05-01T12:53:24;101667.50;;;17.00;58.32
71772;BME280;59606;52.138;5.424;2023-05-01T12:55:53;101664.66;;;17.03;57.49
71772;BME280;59606;52.138;5.424;2023-05-01T12:58:20;101662.56;;;16.95;57.15
71772;BME280;59606;52.138;5.424;2023-05-01T13:00:52;101656.44;;;16.82;57.31
71772;BME280;59606;52.138;5.424;2023-05-01T13:03:25;101657.59;;;16.78;59.83
71772;BME280;59606;52.138;5.424;2023-05-01T13:06:02;101657.59;;;16.78;59.54
71772;BME280;59606;52.138;5.424;2023-05-01T13:08:31;101657.16;;;16.71;60.11
71772;BME280;59606;52.138;5.424;2023-05-01T13:10:59;101655.66;;;16.67;58.57
71772;BME280;59606;52.138;5.424;2023-05-01T13:13:28;101657.13;;;16.58;58.69
71772;BME280;59606;52.138;5.424;2023-05-01T13:16:08;101658.78;;;16.59;60.73
71772;BME280;59606;52.138;5.424;2023-05-01T13:18:55;101655.53;;;16.56;59.16
71772;BME280;59606;52.138;5.424;2023-05-01T13:21:23;101652.88;;;16.43;60.18
71772;BME280;59606;52.138;5.424;2023-05-01T13:23:59;101655.19;;;16.35;59.87
71772;BME280;59606;52.138;5.424;2023-05-01T13:26:33;101654.63;;;16.30;61.72
71772;BME280;59606;52.138;5.424;2023-05-01T13:29:02;101657.38;;;16.28;62.72
71772;BME280;59606;52.138;5.424;2023-05-01T13:31:29;101659.88;;;16.17;63.80
71772;BME280;59606;52.138;5.424;2023-05-01T13:33:57;101655.53;;;16.16;66.31
71772;BME280;59606;52.138;5.424;2023-05-01T13:36:25;101654.38;;;16.07;65.91
71772;BME280;59606;52.138;5.424;2023-05-01T13:38:55;101666.66;;;16.07;65.99
71772;BME280;59606;52.138;5.424;2023-05-01T13:41:24;101660.53;;;16.06;65.25
71772;BME280;59606;52.138;5.424;2023-05-01T13:43:52;101667.97;;;15.99;62.54
71772;BME280;59606;52.138;5.424;2023-05-01T13:46:21;101666.66;;;16.07;64.15
71772;BME280;59606;52.138;5.424;2023-05-01T13:48:48;101664.28;;;16.16;62.18
71772;BME280;59606;52.138;5.424;2023-05-01T13:51:22;101661.75;;;16.15;62.31
71772;BME280;59606;52.138;5.424;2023-05-01T13:53:49;101669.75;;;16.13;59.53